Time;durP1;ratioP1;P1;durP2;ratioP2;P2;SDS_P1;SDS_P2;PMS_P1;PMS_P2;Temp;Humidity;BMP_temperature;BMP_pressure;BME280_temperature;BME280_humidity;BME280_pressure;Samples;Min_cycle;Max_cycle;Signal;HPM_P1;HPM_P2
2022/11/06 00:02:43;;;;;;;18.40;5.47;;;11.80;62.70;;;;;;6230293;28;20037;-76
2022/11/06 00:09:07;;;;;;;11.52;4.68;;;11.80;62.80;;;;;;6235054;28;20036;-76
2022/11/06 00:12:08;;;;;;;12.80;5.25;;;11.80;62.90;;;;;;6249073;28;20033;-76
2022/11/06 00:15:09;;;;;;;20.00;5.45;;;11.80;63.00;;;;;;6224239;28;20034;-78
2022/11/06 00:18:10;;;;;;;13.88;4.90;;;11.80;63.00;;;;;;6232639;28;20128;-75
2022/11/06 00:21:13;;;;;;;12.02;5.72;;;11.80;63.00;;;;;;6235462;28;20033;-76
2022/11/06 00:24:14;;;;;;;11.63;5.22;;;11.80;62.90;;;;;;6219321;28;20028;-76
2022/11/06 00:27:15;;;;;;;18.67;5.07;;;11.80;62.90;;;;;;6240218;28;20061;-77
2022/11/06 00:30:19;;;;;;;12.45;5.53;;;11.90;63.00;;;;;;6239014;28;20083;-77
2022/11/06 00:33:20;;;;;;;13.65;4.07;;;11.90;62.90;;;;;;6226438;28;20473;-76
2022/11/06 00:36:22;;;;;;;18.98;5.90;;;11.80;62.90;;;;;;6239653;28;20040;-76
2022/11/06 00:39:23;;;;;;;10.70;5.00;;;11.80;62.90;;;;;;6238296;28;20086;-75
2022/11/06 00:42:24;;;;;;;9.30;4.65;;;11.80;63.00;;;;;;6236480;28;20034;-76
2022/11/06 00:45:25;;;;;;;9.65;4.60;;;11.70;63.10;;;;;;6253944;28;20120;-76
2022/11/06 00:48:26;;;;;;;12.52;6.25;;;11.70;63.10;;;;;;6238859;28;20041;-76
2022/11/06 00:51:29;;;;;;;9.05;4.43;;;11.70;63.10;;;;;;6238959;28;20041;-78
2022/11/06 00:54:30;;;;;;;9.63;4.68;;;11.60;63.10;;;;;;6239785;28;20038;-76
2022/11/06 00:57:31;;;;;;;10.85;4.25;;;11.60;63.10;;;;;;6232501;28;20057;-77
2022/11/06 01:00:32;;;;;;;7.85;4.35;;;11.60;63.10;;;;;;6254423;28;20037;-78
2022/11/06 01:03:33;;;;;;;14.88;4.53;;;11.50;63.20;;;;;;6223270;28;20110;-76
2022/11/06 01:06:38;;;;;;;10.10;4.82;;;11.50;63.50;;;;;;6218506;28;20116;-76
2022/11/06 01:09:39;;;;;;;9.15;4.93;;;11.40;63.70;;;;;;6232914;28;20040;-77
2022/11/06 01:12:40;;;;;;;10.15;4.45;;;11.40;63.90;;;;;;6235646;28;20112;-77
2022/11/06 01:15:41;;;;;;;12.27;5.78;;;11.30;64.00;;;;;;6222194;28;20029;-76
2022/11/06 01:18:43;;;;;;;13.18;4.88;;;11.30;64.20;;;;;;6253300;28;20127;-76
2022/11/06 01:21:46;;;;;;;12.82;5.88;;;11.30;64.30;;;;;;6249536;28;20044;-75
2022/11/06 01:24:47;;;;;;;13.85;5.18;;;11.30;64.30;;;;;;6238435;28;20041;-76
2022/11/06 01:27:47;;;;;;;12.82;4.85;;;11.30;64.40;;;;;;6233860;28;20041;-76
2022/11/06 01:30:48;;;;;;;8.55;4.60;;;11.20;64.40;;;;;;6237959;28;20041;-77
2022/11/06 01:33:50;;;;;;;14.80;5.22;;;11.20;64.50;;;;;;6252347;28;20041;-77
2022/11/06 01:36:50;;;;;;;11.38;4.95;;;11.20;64.40;;;;;;6254737;28;20033;-76
2022/11/06 01:39:51;;;;;;;9.25;4.10;;;11.20;64.40;;;;;;6238239;28;20047;-76
2022/11/06 01:42:52;;;;;;;9.80;4.05;;;11.20;64.50;;;;;;6235016;28;20033;-75
2022/11/06 01:45:54;;;;;;;11.55;4.78;;;11.20;64.60;;;;;;6228225;28;20049;-75
2022/11/06 01:49:07;;;;;;;11.75;4.47;;;11.20;64.70;;;;;;6232533;28;20033;-76
2022/11/06 01:52:10;;;;;;;8.75;3.92;;;11.10;64.70;;;;;;6222475;28;20048;-76
2022/11/06 01:55:16;;;;;;;8.48;4.28;;;11.20;64.80;;;;;;6233389;28;20037;-76
2022/11/06 01:58:20;;;;;;;8.98;4.25;;;11.20;64.80;;;;;;6248630;28;20040;-75
2022/11/06 02:01:21;;;;;;;8.52;4.10;;;11.20;64.80;;;;;;6245789;28;20570;-75
2022/11/06 02:04:28;;;;;;;10.85;4.63;;;11.20;64.80;;;;;;6243347;28;20358;-75
2022/11/06 02:07:29;;;;;;;9.73;4.22;;;11.20;64.80;;;;;;6230944;28;20045;-76
2022/11/06 02:10:31;;;;;;;12.45;4.70;;;11.20;64.80;;;;;;6254410;28;20421;-76
2022/11/06 02:13:54;;;;;;;10.23;4.63;;;11.20;64.80;;;;;;6244182;28;20079;-76
2022/11/06 02:17:08;;;;;;;16.52;4.72;;;11.20;64.60;;;;;;6249670;28;20065;-77
2022/11/06 02:20:40;;;;;;;9.40;4.80;;;11.10;64.60;;;;;;6234638;28;20366;-77
2022/11/06 02:24:28;;;;;;;6.85;3.67;;;11.10;64.50;;;;;;6251208;28;20037;-75
2022/11/06 02:27:30;;;;;;;12.43;4.72;;;11.00;64.50;;;;;;6130997;29;20040;-77
2022/11/06 02:30:35;;;;;;;7.95;4.20;;;11.00;64.50;;;;;;6133177;29;20070;-77
2022/11/06 02:34:00;;;;;;;10.00;5.00;;;10.90;64.70;;;;;;6107218;29;20110;-75
2022/11/06 02:37:10;;;;;;;8.15;4.30;;;10.80;65.00;;;;;;6125447;29;20040;-77
2022/11/06 02:40:14;;;;;;;8.35;4.18;;;10.70;65.20;;;;;;6112591;29;20043;-77
2022/11/06 02:43:16;;;;;;;9.93;4.28;;;10.70;65.40;;;;;;6113674;29;20039;-76
2022/11/06 02:46:51;;;;;;;12.75;4.32;;;10.70;65.50;;;;;;6129439;29;20039;-76
2022/11/06 02:49:59;;;;;;;9.18;3.92;;;10.70;65.60;;;;;;6108491;29;20159;-76
2022/11/06 02:53:04;;;;;;;10.48;4.80;;;10.70;65.60;;;;;;6114790;29;20476;-75
2022/11/06 02:56:12;;;;;;;8.35;3.90;;;10.70;65.40;;;;;;6114492;29;20040;-76
2022/11/06 02:59:20;;;;;;;8.57;4.35;;;10.70;65.30;;;;;;6229613;28;20097;-76
2022/11/06 03:02:28;;;;;;;9.32;4.07;;;10.80;65.30;;;;;;6224895;28;20034;-76
2022/11/06 03:06:11;;;;;;;9.40;3.97;;;10.80;65.20;;;;;;6220276;28;20029;-77
2022/11/06 03:09:18;;;;;;;9.85;4.00;;;10.70;65.10;;;;;;6229091;28;20034;-75
2022/11/06 03:12:29;;;;;;;11.45;4.05;;;10.80;66.10;;;;;;6225147;28;20034;-76
2022/11/06 03:15:49;;;;;;;13.75;4.15;;;10.70;65.20;;;;;;6228232;28;20409;-76
2022/11/06 03:18:57;;;;;;;7.20;3.67;;;10.70;65.30;;;;;;6227973;28;20041;-75
2022/11/06 03:22:25;;;;;;;9.93;4.70;;;10.70;65.20;;;;;;6248051;28;20033;-76
2022/11/06 03:25:43;;;;;;;9.85;4.60;;;10.70;65.20;;;;;;6233416;28;20366;-76
2022/11/06 03:29:15;;;;;;;7.47;3.63;;;10.70;65.30;;;;;;6221732;28;20363;-76
2022/11/06 03:32:25;;;;;;;7.85;3.83;;;10.70;65.40;;;;;;6183667;28;20029;-75
2022/11/06 03:35:45;;;;;;;8.52;4.35;;;10.70;65.60;;;;;;6251983;28;20058;-75
2022/11/06 03:38:50;;;;;;;10.52;3.95;;;10.60;65.60;;;;;;6250642;28;20033;-75
2022/11/06 03:42:11;;;;;;;8.85;4.22;;;10.60;65.60;;;;;;6233522;28;20025;-77
2022/11/06 03:45:20;;;;;;;11.18;4.18;;;10.60;65.70;;;;;;6235297;28;20042;-77
2022/11/06 03:48:36;;;;;;;7.60;3.67;;;10.60;65.70;;;;;;6249928;28;20129;-75
2022/11/06 03:51:46;;;;;;;8.27;3.40;;;10.60;65.70;;;;;;6257287;28;20039;-76
2022/11/06 03:54:54;;;;;;;7.38;3.80;;;10.70;65.70;;;;;;6252004;28;20049;-76
2022/11/06 03:58:08;;;;;;;8.52;3.78;;;10.70;65.60;;;;;;6227627;28;20029;-76
2022/11/06 04:01:11;;;;;;;10.35;4.05;;;10.80;65.60;;;;;;6233004;28;20418;-77
2022/11/06 04:04:21;;;;;;;6.90;4.10;;;10.70;65.40;;;;;;6248359;28;20034;-76
2022/11/06 04:07:29;;;;;;;8.80;4.10;;;10.70;65.40;;;;;;6253749;28;20080;-75
2022/11/06 04:13:57;;;;;;;10.27;4.55;;;10.70;65.60;;;;;;6259207;28;20061;-77
2022/11/06 04:17:02;;;;;;;12.68;4.30;;;10.70;65.80;;;;;;6258023;28;20041;-76
2022/11/06 04:20:08;;;;;;;7.10;3.92;;;10.70;65.80;;;;;;6236452;28;20048;-76
2022/11/06 04:23:23;;;;;;;10.90;3.67;;;10.70;65.70;;;;;;6258729;28;20045;-77
2022/11/06 04:26:36;;;;;;;10.45;4.13;;;10.70;65.70;;;;;;6252798;28;20064;-77
2022/11/06 04:29:55;;;;;;;13.52;4.30;;;10.70;65.70;;;;;;6253638;28;20139;-76
2022/11/06 04:33:42;;;;;;;16.10;3.75;;;10.70;65.70;;;;;;6247020;28;20061;-75
2022/11/06 04:36:55;;;;;;;7.75;3.72;;;10.60;65.70;;;;;;6127387;29;20035;-76
2022/11/06 04:40:01;;;;;;;7.60;3.75;;;10.70;65.70;;;;;;6131788;29;20035;-76
2022/11/06 04:43:10;;;;;;;7.10;3.33;;;10.60;65.50;;;;;;6103556;29;20470;-77
2022/11/06 04:46:18;;;;;;;6.32;3.33;;;10.70;65.60;;;;;;6119532;29;20044;-76
2022/11/06 04:49:20;;;;;;;7.18;3.28;;;10.60;65.40;;;;;;6131815;29;20042;-75
2022/11/06 04:52:25;;;;;;;4.40;3.00;;;10.60;65.40;;;;;;6133917;29;20370;-76
2022/11/06 04:55:29;;;;;;;4.47;2.80;;;10.60;65.50;;;;;;6131816;29;20039;-77
2022/11/06 04:58:29;;;;;;;8.63;3.72;;;10.50;66.40;;;;;;6134973;29;20118;-76
2022/11/06 05:01:31;;;;;;;8.43;3.10;;;10.50;65.60;;;;;;6118712;29;20480;-77
2022/11/06 05:04:32;;;;;;;6.53;3.15;;;10.50;65.70;;;;;;6119477;29;20031;-76
2022/11/06 05:07:33;;;;;;;6.00;3.22;;;10.40;65.70;;;;;;6118488;29;20433;-76
2022/11/06 05:10:34;;;;;;;6.75;3.35;;;10.40;65.80;;;;;;6206871;28;20489;-76
2022/11/06 05:13:36;;;;;;;8.15;3.72;;;10.40;66.00;;;;;;6254658;28;20041;-76
2022/11/06 05:16:37;;;;;;;8.02;3.53;;;10.30;66.10;;;;;;6256006;28;20090;-76
2022/11/06 05:19:38;;;;;;;5.88;3.03;;;10.30;66.10;;;;;;6254553;28;20042;-76
2022/11/06 05:25:59;;;;;;;6.57;3.10;;;10.20;66.20;;;;;;6237277;28;20140;-75
2022/11/06 05:29:00;;;;;;;5.60;3.42;;;10.20;66.30;;;;;;6223206;28;20068;-75
2022/11/06 05:32:01;;;;;;;4.53;2.95;;;10.30;66.30;;;;;;6234194;28;20387;-77
2022/11/06 05:35:02;;;;;;;3.65;2.60;;;10.30;66.20;;;;;;6247547;28;20099;-75
2022/11/06 05:38:03;;;;;;;6.60;3.45;;;10.20;66.00;;;;;;6253130;28;20050;-75
2022/11/06 05:41:04;;;;;;;6.50;3.15;;;10.20;65.90;;;;;;6240179;28;20038;-75
2022/11/06 05:44:05;;;;;;;6.57;4.38;;;10.20;66.00;;;;;;6240702;28;20064;-75
2022/11/06 05:47:06;;;;;;;8.10;3.92;;;10.10;66.10;;;;;;6252834;28;20051;-76
2022/11/06 05:50:08;;;;;;;7.90;3.72;;;10.10;66.30;;;;;;6256344;28;20373;-76
2022/11/06 05:53:10;;;;;;;8.80;3.78;;;10.00;66.30;;;;;;6258405;28;20049;-76
2022/11/06 05:56:11;;;;;;;12.23;3.25;;;10.00;66.40;;;;;;6222457;28;20044;-77
2022/11/06 05:59:12;;;;;;;6.15;3.45;;;9.90;66.60;;;;;;6252619;28;20384;-75
2022/11/06 06:02:13;;;;;;;8.23;3.22;;;9.90;66.80;;;;;;6222390;28;20096;-76
2022/11/06 06:05:14;;;;;;;6.88;3.10;;;10.00;67.10;;;;;;6248229;28;20513;-76
2022/11/06 06:08:15;;;;;;;4.90;3.08;;;9.90;67.10;;;;;;6248978;28;20131;-76
2022/11/06 06:11:16;;;;;;;9.27;3.70;;;10.00;67.10;;;;;;6252988;28;20037;-76
2022/11/06 06:14:17;;;;;;;6.32;2.72;;;10.00;67.00;;;;;;6218902;28;20426;-77
2022/11/06 06:17:18;;;;;;;4.55;2.85;;;10.00;67.00;;;;;;6237886;28;20045;-76
2022/11/06 06:20:19;;;;;;;6.72;3.42;;;10.00;67.00;;;;;;6252628;28;20045;-75
2022/11/06 06:23:20;;;;;;;7.47;3.03;;;10.10;67.00;;;;;;6254489;28;20034;-76
2022/11/06 06:26:22;;;;;;;6.28;2.95;;;10.10;66.90;;;;;;6222248;28;20052;-76
2022/11/06 06:29:23;;;;;;;7.50;3.25;;;10.10;66.90;;;;;;6226567;28;20120;-76
2022/11/06 06:32:24;;;;;;;4.70;2.70;;;10.10;66.70;;;;;;6235073;28;20355;-77
2022/11/06 06:35:25;;;;;;;4.68;2.72;;;10.10;66.50;;;;;;6248386;28;20040;-76
2022/11/06 06:38:26;;;;;;;7.28;3.00;;;10.20;66.40;;;;;;6231589;28;20041;-75
2022/11/06 06:41:26;;;;;;;5.82;2.95;;;10.10;66.20;;;;;;6236101;28;20351;-76
2022/11/06 06:44:27;;;;;;;10.35;3.38;;;10.10;66.20;;;;;;6216420;28;20110;-76
2022/11/06 06:47:28;;;;;;;6.00;3.67;;;10.00;66.30;;;;;;6256750;28;20037;-76
2022/11/06 06:50:29;;;;;;;6.68;3.53;;;9.90;66.60;;;;;;6253679;28;20041;-76
2022/11/06 06:53:30;;;;;;;5.40;2.78;;;9.90;66.80;;;;;;6252496;28;20028;-76
2022/11/06 06:56:31;;;;;;;7.10;3.40;;;9.90;66.70;;;;;;6253925;28;20059;-76
2022/11/06 06:59:32;;;;;;;8.10;3.33;;;9.90;66.80;;;;;;6236800;28;20045;-76
2022/11/06 07:02:33;;;;;;;8.18;3.67;;;9.90;66.90;;;;;;6217344;28;20379;-77
2022/11/06 07:05:33;;;;;;;7.05;3.70;;;9.90;67.00;;;;;;6249548;28;20417;-76
2022/11/06 07:08:34;;;;;;;7.10;3.25;;;9.90;66.90;;;;;;6256446;28;20112;-77
2022/11/06 07:11:35;;;;;;;5.78;3.50;;;10.00;67.00;;;;;;6244962;28;20365;-76
2022/11/06 07:14:36;;;;;;;6.63;3.60;;;10.00;66.80;;;;;;6251590;28;20363;-76
2022/11/06 07:17:37;;;;;;;5.43;3.05;;;10.00;66.70;;;;;;6237882;28;20033;-76
2022/11/06 07:20:38;;;;;;;9.57;3.38;;;10.10;66.70;;;;;;6224317;28;20041;-74
2022/11/06 07:23:39;;;;;;;5.45;3.25;;;10.10;66.40;;;;;;6250184;28;20026;-77
2022/11/06 07:26:40;;;;;;;5.85;3.45;;;10.00;66.40;;;;;;6238933;28;20041;-77
2022/11/06 07:29:41;;;;;;;9.13;3.47;;;10.00;66.40;;;;;;6219560;28;20048;-78
2022/11/06 07:32:42;;;;;;;9.73;3.95;;;10.00;66.40;;;;;;6254708;28;20046;-76
2022/11/06 07:35:43;;;;;;;6.05;3.50;;;10.00;66.60;;;;;;6237688;28;20037;-76
2022/11/06 07:38:44;;;;;;;6.07;3.78;;;10.00;67.50;;;;;;6246670;28;20355;-77
2022/11/06 07:41:45;;;;;;;6.88;3.53;;;10.00;66.60;;;;;;6228122;28;20053;-77
2022/11/06 07:44:47;;;;;;;15.40;3.83;;;10.10;66.60;;;;;;6221031;28;20095;-77
2022/11/06 07:47:48;;;;;;;9.52;3.63;;;10.00;66.50;;;;;;6255831;28;20040;-76
2022/11/06 07:50:49;;;;;;;5.40;2.65;;;10.10;66.70;;;;;;6235453;28;20045;-77
2022/11/06 07:53:50;;;;;;;3.75;2.40;;;10.10;66.70;;;;;;6230506;28;20049;-76
2022/11/06 07:56:51;;;;;;;3.47;1.90;;;10.20;66.70;;;;;;6235540;28;20048;-75
2022/11/06 07:59:51;;;;;;;4.60;2.58;;;10.30;66.50;;;;;;6253306;28;20079;-76
2022/11/06 08:02:52;;;;;;;7.32;3.15;;;10.40;66.30;;;;;;6246411;28;20049;-76
2022/11/06 08:05:53;;;;;;;5.93;2.95;;;10.50;66.20;;;;;;6231052;28;20056;-76
2022/11/06 08:08:54;;;;;;;8.00;3.58;;;10.60;66.10;;;;;;6253246;28;20116;-77
2022/11/06 08:11:55;;;;;;;6.45;3.40;;;10.70;65.80;;;;;;6229723;28;20322;-77
2022/11/06 08:14:56;;;;;;;5.75;3.05;;;10.80;65.50;;;;;;6261809;28;20473;-76
2022/11/06 08:17:58;;;;;;;6.88;3.63;;;10.90;65.30;;;;;;6256511;28;20041;-77
2022/11/06 08:20:59;;;;;;;7.60;3.45;;;10.90;65.20;;;;;;6239599;28;20060;-78
2022/11/06 08:24:00;;;;;;;5.50;2.78;;;11.00;65.00;;;;;;6242915;28;20048;-76
2022/11/06 08:27:01;;;;;;;5.75;3.08;;;11.10;64.80;;;;;;6239226;28;20362;-76
2022/11/06 08:30:03;;;;;;;6.32;2.90;;;11.20;64.60;;;;;;6257221;28;20377;-78
2022/11/06 08:33:07;;;;;;;8.05;3.67;;;11.30;64.40;;;;;;6250824;28;20038;-76
2022/11/06 08:36:08;;;;;;;10.20;3.60;;;11.40;64.20;;;;;;6238206;28;20033;-76
2022/11/06 08:39:10;;;;;;;7.80;3.45;;;11.40;63.90;;;;;;6232139;28;20041;-78
2022/11/06 08:42:11;;;;;;;4.13;2.58;;;11.40;63.50;;;;;;6255843;28;20053;-76
2022/11/06 08:45:12;;;;;;;5.50;2.97;;;11.40;63.50;;;;;;6233036;28;20040;-77
2022/11/06 08:48:12;;;;;;;5.38;2.40;;;11.50;63.50;;;;;;6256642;28;20415;-76
2022/11/06 08:51:13;;;;;;;5.47;2.42;;;11.60;63.50;;;;;;6235475;28;20119;-76
2022/11/06 08:54:14;;;;;;;3.33;2.33;;;11.60;63.30;;;;;;6248221;28;20069;-76
2022/11/06 08:57:15;;;;;;;4.95;2.38;;;11.70;62.90;;;;;;6234715;28;20179;-75
2022/11/06 09:00:16;;;;;;;5.72;2.60;;;11.80;62.60;;;;;;6255427;28;20037;-75
2022/11/06 09:03:17;;;;;;;6.45;2.50;;;11.90;62.40;;;;;;6236198;28;20068;-76
2022/11/06 09:06:17;;;;;;;5.38;2.25;;;12.00;62.30;;;;;;6229796;28;20671;-76
2022/11/06 09:09:18;;;;;;;9.27;3.03;;;12.10;62.00;;;;;;6237554;28;20044;-77
2022/11/06 09:12:19;;;;;;;6.32;3.35;;;12.20;61.70;;;;;;6233803;28;20461;-76
2022/11/06 09:15:20;;;;;;;7.22;3.20;;;12.40;61.30;;;;;;6234902;28;20045;-76
2022/11/06 09:18:21;;;;;;;7.88;3.30;;;12.50;61.10;;;;;;6255585;28;20086;-77
2022/11/06 09:21:22;;;;;;;6.05;2.58;;;12.60;61.00;;;;;;6254344;28;20037;-76
2022/11/06 09:24:23;;;;;;;4.18;1.90;;;12.70;60.90;;;;;;6253330;28;20124;-76
2022/11/06 09:27:24;;;;;;;3.17;1.92;;;12.80;60.20;;;;;;6232387;28;20036;-77
2022/11/06 09:30:28;;;;;;;4.45;2.38;;;12.80;59.90;;;;;;6253839;28;20429;-76
2022/11/06 09:33:28;;;;;;;7.15;2.50;;;12.90;59.90;;;;;;6243991;28;20033;-78
2022/11/06 09:36:29;;;;;;;4.22;2.20;;;13.00;59.90;;;;;;6251854;28;20327;-76
2022/11/06 09:39:30;;;;;;;5.30;2.50;;;13.10;59.50;;;;;;6243822;28;20041;-77
2022/11/06 09:42:51;;;;;;;5.35;1.98;;;13.10;59.20;;;;;;6255381;28;20061;-75
2022/11/06 09:45:53;;;;;;;3.50;2.33;;;13.20;59.10;;;;;;6222656;28;20095;-76
2022/11/06 09:49:19;;;;;;;8.00;3.22;;;13.20;58.90;;;;;;6254603;28;20057;-75
2022/11/06 09:52:43;;;;;;;4.55;2.63;;;13.30;58.90;;;;;;6238005;28;20025;-76
2022/11/06 09:55:45;;;;;;;5.35;2.78;;;13.40;58.80;;;;;;6248152;28;20039;-77
2022/11/06 09:58:47;;;;;;;7.75;3.30;;;13.60;58.50;;;;;;6248097;28;20052;-76
2022/11/06 10:01:55;;;;;;;4.18;2.53;;;13.90;58.10;;;;;;6244925;28;20057;-77
2022/11/06 10:05:23;;;;;;;4.75;2.97;;;14.20;57.50;;;;;;6233310;28;20029;-77
2022/11/06 10:08:26;;;;;;;5.00;2.22;;;14.40;56.90;;;;;;6218063;28;20044;-77
2022/11/06 10:11:44;;;;;;;9.50;3.10;;;14.60;56.40;;;;;;6232736;28;20438;-76
2022/11/06 10:15:33;;;;;;;3.75;1.67;;;14.70;56.20;;;;;;6237802;28;20099;-77
2022/11/06 10:18:50;;;;;;;2.03;1.35;;;14.90;55.90;;;;;;6129813;28;20352;-76
2022/11/06 10:22:11;;;;;;;6.05;1.50;;;15.10;54.50;;;;;;6117417;28;20119;-76
2022/11/06 10:25:21;;;;;;;2.38;1.45;;;15.20;54.10;;;;;;6118880;28;20062;-76
2022/11/06 10:28:30;;;;;;;1.77;1.50;;;15.30;53.90;;;;;;6115304;28;20552;-76
2022/11/06 10:31:50;;;;;;;3.30;1.65;;;15.50;53.70;;;;;;6113743;28;20031;-76
2022/11/06 10:35:10;;;;;;;6.25;2.40;;;15.60;53.10;;;;;;6113668;28;20151;-77
2022/11/06 10:38:16;;;;;;;5.90;1.40;;;15.80;53.10;;;;;;6131829;28;20049;-76
2022/11/06 10:41:31;;;;;;;2.05;1.42;;;16.00;52.50;;;;;;6123995;28;20056;-77
2022/11/06 10:44:46;;;;;;;3.13;1.52;;;16.30;52.20;;;;;;6136844;28;20363;-76
2022/11/06 10:48:11;;;;;;;3.33;1.83;;;16.60;51.80;;;;;;6126906;28;20488;-76
2022/11/06 10:51:44;;;;;;;6.50;1.85;;;16.90;51.20;;;;;;6119391;29;20190;-76
2022/11/06 10:55:09;;;;;;;5.95;2.05;;;17.20;50.40;;;;;;6220325;28;20038;-76
2022/11/06 10:58:20;;;;;;;3.60;1.65;;;17.50;49.00;;;;;;6147886;28;20234;-76
2022/11/06 11:01:21;;;;;;;3.08;1.50;;;17.70;48.80;;;;;;6149487;28;20035;-76
2022/11/06 11:04:22;;;;;;;4.03;1.80;;;18.10;48.00;;;;;;6152587;28;20041;-76
2022/11/06 11:07:24;;;;;;;4.00;1.55;;;18.50;47.20;;;;;;6137360;28;20058;-77
2022/11/06 11:10:32;;;;;;;4.53;1.85;;;19.00;46.20;;;;;;6151259;28;20108;-77
2022/11/06 11:13:33;;;;;;;2.28;1.30;;;19.50;45.20;;;;;;6133761;28;20126;-77
2022/11/06 11:16:38;;;;;;;2.15;1.67;;;20.20;44.40;;;;;;6151374;28;20459;-77
2022/11/06 11:19:41;;;;;;;2.25;1.60;;;20.80;43.50;;;;;;6151381;28;20046;-76
2022/11/06 11:22:42;;;;;;;2.67;1.60;;;21.40;42.50;;;;;;6151629;28;20118;-77
2022/11/06 11:25:48;;;;;;;2.80;1.67;;;21.60;42.00;;;;;;6148414;28;20341;-77
2022/11/06 11:28:52;;;;;;;4.47;1.50;;;21.50;41.20;;;;;;6134982;28;20043;-76
2022/11/06 11:31:58;;;;;;;2.40;1.73;;;21.20;40.60;;;;;;6125536;28;20525;-76
2022/11/06 11:34:59;;;;;;;1.95;1.40;;;20.90;40.10;;;;;;6202455;28;20053;-77
2022/11/06 11:38:12;;;;;;;3.95;1.88;;;20.70;40.10;;;;;;6248825;28;20038;-76
2022/11/06 11:41:18;;;;;;;2.55;1.30;;;20.60;40.60;;;;;;6249510;28;20125;-75
2022/11/06 11:44:20;;;;;;;2.83;1.60;;;20.70;40.30;;;;;;6253232;28;20021;-76
2022/11/06 11:47:23;;;;;;;2.05;1.33;;;20.80;40.00;;;;;;6234932;28;20053;-77
2022/11/06 11:50:24;;;;;;;3.42;2.25;;;20.70;40.00;;;;;;6236526;28;20534;-76
2022/11/06 11:53:25;;;;;;;2.08;1.50;;;20.40;40.00;;;;;;6239872;28;20033;-77
2022/11/06 11:56:27;;;;;;;2.75;1.77;;;20.10;40.80;;;;;;6242493;28;20033;-77
2022/11/06 11:59:49;;;;;;;3.47;1.50;;;19.70;41.40;;;;;;6252001;28;20025;-77
2022/11/06 12:02:56;;;;;;;2.45;1.38;;;19.50;42.10;;;;;;6221167;28;20048;-77
2022/11/06 12:06:10;;;;;;;2.67;1.38;;;19.30;42.70;;;;;;6254487;28;20021;-76
2022/11/06 12:09:12;;;;;;;1.90;1.60;;;19.00;43.10;;;;;;6240718;28;20124;-76
2022/11/06 12:12:30;;;;;;;2.05;1.40;;;18.90;43.30;;;;;;6254499;28;20038;-76
2022/11/06 12:15:59;;;;;;;5.75;2.00;;;18.60;43.50;;;;;;6255273;28;20044;-77
2022/11/06 12:19:01;;;;;;;1.80;1.25;;;18.40;43.90;;;;;;6252668;28;20166;-77
2022/11/06 12:22:11;;;;;;;1.98;1.40;;;18.10;44.30;;;;;;6248712;28;20518;-76
2022/11/06 12:25:22;;;;;;;2.55;1.48;;;18.00;44.90;;;;;;6251250;28;20059;-76
2022/11/06 12:28:26;;;;;;;3.40;1.70;;;17.90;45.30;;;;;;6255227;28;20473;-77
2022/11/06 12:31:36;;;;;;;3.70;1.90;;;17.90;45.60;;;;;;6230893;28;20179;-76
2022/11/06 12:34:51;;;;;;;3.15;2.00;;;17.80;45.90;;;;;;6218740;28;20080;-76
2022/11/06 12:38:04;;;;;;;2.35;1.60;;;17.80;46.20;;;;;;6241568;28;20132;-77
2022/11/06 12:41:28;;;;;;;7.88;1.90;;;17.70;46.30;;;;;;6254161;28;20030;-77
2022/11/06 12:44:28;;;;;;;4.68;2.08;;;17.70;46.60;;;;;;6236619;28;20045;-76
2022/11/06 12:48:04;;;;;;;2.33;1.63;;;17.60;46.50;;;;;;6230862;28;20051;-77
2022/11/06 12:51:17;;;;;;;3.88;2.00;;;17.60;47.30;;;;;;6246963;28;20280;-77
2022/11/06 12:54:36;;;;;;;4.35;1.80;;;17.60;46.90;;;;;;6226396;28;20148;-77
2022/11/06 12:57:52;;;;;;;4.90;2.10;;;17.50;46.80;;;;;;6250752;28;20129;-76
2022/11/06 13:01:07;;;;;;;6.55;1.90;;;17.50;46.80;;;;;;6234365;28;20034;-76
2022/11/06 13:04:26;;;;;;;2.92;1.65;;;17.50;46.70;;;;;;6211107;28;20034;-76
2022/11/06 13:07:58;;;;;;;1.58;1.30;;;17.50;46.50;;;;;;6251124;28;20536;-77
2022/11/06 13:11:01;;;;;;;4.82;1.98;;;17.50;46.30;;;;;;6251851;28;20102;-77
2022/11/06 13:14:39;;;;;;;3.25;1.60;;;17.50;46.20;;;;;;6231983;28;20045;-77
2022/11/06 13:18:00;;;;;;;2.35;1.45;;;17.60;46.40;;;;;;6236397;28;20037;-75
2022/11/06 13:21:23;;;;;;;4.78;1.98;;;17.60;46.20;;;;;;6250121;28;20522;-77
2022/11/06 13:24:27;;;;;;;5.93;2.10;;;17.60;46.10;;;;;;6253851;28;20045;-77
2022/11/06 13:27:58;;;;;;;3.85;1.80;;;17.60;46.10;;;;;;6230737;28;20107;-76
2022/11/06 13:31:03;;;;;;;2.22;1.75;;;17.70;46.20;;;;;;6248346;28;20415;-76
2022/11/06 13:34:06;;;;;;;4.07;1.65;;;17.70;46.10;;;;;;6245201;28;20486;-76
2022/11/06 13:37:29;;;;;;;4.95;1.52;;;17.70;46.30;;;;;;6212804;28;20573;-76
2022/11/06 13:40:38;;;;;;;2.92;1.40;;;17.70;46.40;;;;;;6232863;28;20482;-76
2022/11/06 13:43:45;;;;;;;2.72;1.67;;;17.70;46.60;;;;;;6246021;28;20161;-76
2022/11/06 13:47:11;;;;;;;2.63;1.45;;;17.70;46.80;;;;;;6228595;28;20041;-76
2022/11/06 13:50:50;;;;;;;3.67;1.50;;;17.70;47.00;;;;;;6197911;28;20423;-76
2022/11/06 13:54:22;;;;;;;1.95;1.13;;;17.70;47.00;;;;;;6096196;29;20127;-76
2022/11/06 13:57:44;;;;;;;3.17;1.52;;;17.60;47.00;;;;;;6041074;29;20049;-76
2022/11/06 14:01:15;;;;;;;5.43;1.10;;;17.70;46.90;;;;;;6054516;29;20350;-77
2022/11/06 14:04:43;;;;;;;1.38;1.20;;;17.60;46.80;;;;;;6052204;29;20033;-76
2022/11/06 14:07:46;;;;;;;1.73;1.13;;;17.60;46.60;;;;;;6053056;29;20049;-76
2022/11/06 14:10:57;;;;;;;3.10;1.58;;;17.60;46.70;;;;;;6031417;29;20470;-77
2022/11/06 14:14:20;;;;;;;3.70;1.58;;;17.60;46.60;;;;;;6031407;29;20131;-77
2022/11/06 14:17:22;;;;;;;17.05;2.92;;;17.50;46.70;;;;;;6039057;29;20051;-77
2022/11/06 14:20:33;;;;;;;5.88;1.63;;;17.60;46.80;;;;;;6042665;29;20037;-76
2022/11/06 14:23:34;;;;;;;4.38;1.58;;;17.50;46.70;;;;;;6079170;29;20101;-76
2022/11/06 14:26:36;;;;;;;3.30;1.38;;;17.60;46.70;;;;;;6136656;29;20456;-77
2022/11/06 14:29:37;;;;;;;2.03;1.23;;;17.70;46.60;;;;;;6118202;29;20480;-76
2022/11/06 14:32:47;;;;;;;2.35;1.35;;;17.80;46.40;;;;;;6144845;28;20044;-76
2022/11/06 14:35:50;;;;;;;3.20;1.92;;;17.90;46.30;;;;;;6235013;28;20040;-76
2022/11/06 14:38:54;;;;;;;5.18;1.50;;;17.90;46.20;;;;;;6232331;28;20514;-76
2022/11/06 14:41:57;;;;;;;3.95;1.35;;;18.00;46.30;;;;;;6227474;28;20056;-77
2022/11/06 14:45:15;;;;;;;2.67;1.52;;;17.90;46.10;;;;;;6249815;28;20045;-77
2022/11/06 14:48:29;;;;;;;4.68;1.33;;;17.90;46.20;;;;;;6233262;28;20045;-76
2022/11/06 14:51:30;;;;;;;3.13;1.42;;;17.80;46.30;;;;;;6254787;28;20059;-77
2022/11/06 14:54:35;;;;;;;4.18;1.65;;;17.80;46.40;;;;;;6237057;28;20490;-77
2022/11/06 14:57:47;;;;;;;2.03;1.48;;;17.80;46.50;;;;;;6249156;28;20037;-78
2022/11/06 15:01:22;;;;;;;7.60;1.63;;;17.70;46.50;;;;;;6229825;28;20033;-76
2022/11/06 15:04:24;;;;;;;2.83;1.30;;;17.70;46.60;;;;;;6243415;28;20099;-76
2022/11/06 15:07:45;;;;;;;2.63;1.38;;;17.70;46.60;;;;;;6247956;28;20463;-76
2022/11/06 15:10:48;;;;;;;1.80;1.08;;;17.70;46.60;;;;;;6231401;28;20121;-76
2022/11/06 15:13:49;;;;;;;2.75;1.20;;;17.70;46.60;;;;;;6230846;28;20034;-77
2022/11/06 15:16:58;;;;;;;3.20;1.67;;;17.70;47.20;;;;;;6252115;28;20072;-76
2022/11/06 15:20:06;;;;;;;2.72;1.50;;;17.70;46.60;;;;;;6255869;28;20047;-77
2022/11/06 15:23:18;;;;;;;2.17;1.55;;;17.70;46.60;;;;;;6235601;28;20052;-76
2022/11/06 15:26:23;;;;;;;2.33;1.17;;;17.70;46.60;;;;;;6239471;28;20049;-76
2022/11/06 15:29:25;;;;;;;4.25;1.40;;;17.70;46.60;;;;;;6236419;28;20074;-76
2022/11/06 15:32:30;;;;;;;6.30;1.88;;;17.70;46.60;;;;;;6250215;28;20124;-76
2022/11/06 15:35:34;;;;;;;5.07;1.35;;;17.70;46.70;;;;;;6235753;28;20034;-77
2022/11/06 15:38:40;;;;;;;10.18;1.92;;;17.70;46.90;;;;;;6252830;28;20458;-76
2022/11/06 15:41:41;;;;;;;4.10;1.98;;;17.70;47.00;;;;;;6238494;28;20033;-76
2022/11/06 15:44:44;;;;;;;3.90;1.90;;;17.70;47.00;;;;;;6245099;28;20374;-77
2022/11/06 15:48:00;;;;;;;4.18;2.15;;;17.60;47.00;;;;;;6254985;28;20049;-76
2022/11/06 15:51:01;;;;;;;7.07;1.80;;;17.60;47.20;;;;;;6236503;28;20119;-76
2022/11/06 15:54:02;;;;;;;2.40;1.70;;;17.60;47.20;;;;;;6232739;28;20091;-77
2022/11/06 15:57:18;;;;;;;3.92;2.40;;;17.60;47.20;;;;;;6236656;28;20055;-77
2022/11/06 16:00:22;;;;;;;6.15;2.42;;;17.60;47.30;;;;;;6252479;28;20041;-77
2022/11/06 16:03:26;;;;;;;4.50;2.30;;;17.60;47.30;;;;;;6233904;28;20044;-77
2022/11/06 16:06:27;;;;;;;5.40;2.65;;;17.60;47.30;;;;;;6254468;28;20492;-76
2022/11/06 16:09:28;;;;;;;4.07;2.33;;;17.60;47.40;;;;;;6220323;28;20044;-77
2022/11/06 16:12:29;;;;;;;5.38;2.25;;;17.50;47.60;;;;;;6224360;28;20103;-77
2022/11/06 16:15:48;;;;;;;6.22;3.00;;;17.50;47.90;;;;;;6236635;28;20109;-77
2022/11/06 16:18:49;;;;;;;;;;;17.40;48.40;;;;;;6250738;28;20384;-76
2022/11/06 16:21:57;;;;;;;7.72;2.40;;;17.30;48.70;;;;;;6253948;28;19913;-77
2022/11/06 16:25:01;;;;;;;6.43;2.65;;;17.20;48.90;;;;;;6241169;28;20132;-76